sensor_id;sensor_type;location;lat;lon;timestamp;P1;durP1;ratioP1;P2;durP2;ratioP2
16159;SDS011;8185;57.818;15.224;2023-02-03T00:00:54;2.20;;;2.00;;
16159;SDS011;8185;57.818;15.224;2023-02-03T00:03:21;3.17;;;1.77;;
16159;SDS011;8185;57.818;15.224;2023-02-03T00:05:49;3.67;;;1.37;;
16159;SDS011;8185;57.818;15.224;2023-02-03T00:08:17;2.10;;;1.60;;
16159;SDS011;8185;57.818;15.224;2023-02-03T00:10:45;2.00;;;1.70;;
16159;SDS011;8185;57.818;15.224;2023-02-03T00:13:13;3.07;;;1.53;;
16159;SDS011;8185;57.818;15.224;2023-02-03T00:15:40;1.77;;;1.50;;
16159;SDS011;8185;57.818;15.224;2023-02-03T00:18:07;2.07;;;1.60;;
16159;SDS011;8185;57.818;15.224;2023-02-03T00:20:34;1.30;;;1.20;;
16159;SDS011;8185;57.818;15.224;2023-02-03T00:23:04;4.30;;;1.60;;
16159;SDS011;8185;57.818;15.224;2023-02-03T00:25:31;2.67;;;1.50;;
16159;SDS011;8185;57.818;15.224;2023-02-03T00:27:58;1.70;;;1.60;;
16159;SDS011;8185;57.818;15.224;2023-02-03T00:30:26;4.43;;;1.90;;
16159;SDS011;8185;57.818;15.224;2023-02-03T00:32:53;2.47;;;1.70;;
16159;SDS011;8185;57.818;15.224;2023-02-03T00:35:21;2.73;;;1.47;;
16159;SDS011;8185;57.818;15.224;2023-02-03T00:37:51;2.20;;;1.60;;
16159;SDS011;8185;57.818;15.224;2023-02-03T00:40:20;1.90;;;1.60;;
16159;SDS011;8185;57.818;15.224;2023-02-03T00:42:50;2.47;;;1.50;;
16159;SDS011;8185;57.818;15.224;2023-02-03T00:45:19;1.87;;;1.60;;
16159;SDS011;8185;57.818;15.224;2023-02-03T00:47:46;3.97;;;1.53;;
16159;SDS011;8185;57.818;15.224;2023-02-03T00:50:13;4.80;;;1.43;;
16159;SDS011;8185;57.818;15.224;2023-02-03T00:52:40;2.07;;;1.87;;
16159;SDS011;8185;57.818;15.224;2023-02-03T00:55:08;1.73;;;1.47;;
16159;SDS011;8185;57.818;15.224;2023-02-03T00:57:36;4.13;;;1.90;;
16159;SDS011;8185;57.818;15.224;2023-02-03T01:00:04;1.50;;;1.40;;
16159;SDS011;8185;57.818;15.224;2023-02-03T01:02:32;1.47;;;1.30;;
16159;SDS011;8185;57.818;15.224;2023-02-03T01:04:59;2.10;;;1.37;;
16159;SDS011;8185;57.818;15.224;2023-02-03T01:07:26;1.30;;;1.10;;
16159;SDS011;8185;57.818;15.224;2023-02-03T01:09:56;1.80;;;1.37;;
16159;SDS011;8185;57.818;15.224;2023-02-03T01:12:23;1.60;;;1.33;;
16159;SDS011;8185;57.818;15.224;2023-02-03T01:14:52;2.00;;;1.17;;
16159;SDS011;8185;57.818;15.224;2023-02-03T01:17:19;2.27;;;1.40;;
16159;SDS011;8185;57.818;15.224;2023-02-03T01:19:47;1.40;;;1.20;;
16159;SDS011;8185;57.818;15.224;2023-02-03T01:22:15;1.20;;;1.10;;
16159;SDS011;8185;57.818;15.224;2023-02-03T01:24:42;2.53;;;1.50;;
16159;SDS011;8185;57.818;15.224;2023-02-03T01:27:10;2.13;;;1.77;;
16159;SDS011;8185;57.818;15.224;2023-02-03T01:29:37;1.77;;;1.27;;
16159;SDS011;8185;57.818;15.224;2023-02-03T01:32:05;1.60;;;1.40;;
16159;SDS011;8185;57.818;15.224;2023-02-03T01:34:32;3.03;;;1.50;;
16159;SDS011;8185;57.818;15.224;2023-02-03T01:37:00;1.87;;;1.60;;
16159;SDS011;8185;57.818;15.224;2023-02-03T01:39:27;2.30;;;1.10;;
16159;SDS011;8185;57.818;15.224;2023-02-03T01:41:54;1.80;;;1.60;;
16159;SDS011;8185;57.818;15.224;2023-02-03T01:44:37;2.37;;;1.60;;
16159;SDS011;8185;57.818;15.224;2023-02-03T01:47:12;2.53;;;1.27;;
16159;SDS011;8185;57.818;15.224;2023-02-03T01:49:47;2.07;;;1.27;;
16159;SDS011;8185;57.818;15.224;2023-02-03T01:52:16;2.37;;;1.23;;
16159;SDS011;8185;57.818;15.224;2023-02-03T01:54:44;2.33;;;1.20;;
16159;SDS011;8185;57.818;15.224;2023-02-03T01:57:15;2.20;;;1.30;;
16159;SDS011;8185;57.818;15.224;2023-02-03T01:59:45;1.60;;;1.50;;
16159;SDS011;8185;57.818;15.224;2023-02-03T02:02:15;1.60;;;1.40;;
16159;SDS011;8185;57.818;15.224;2023-02-03T02:04:45;1.57;;;1.30;;
16159;SDS011;8185;57.818;15.224;2023-02-03T02:07:18;2.43;;;1.63;;
16159;SDS011;8185;57.818;15.224;2023-02-03T02:09:46;1.47;;;1.30;;
16159;SDS011;8185;57.818;15.224;2023-02-03T02:12:14;1.90;;;1.23;;
16159;SDS011;8185;57.818;15.224;2023-02-03T02:14:41;1.30;;;1.20;;
16159;SDS011;8185;57.818;15.224;2023-02-03T02:17:11;2.50;;;1.47;;
16159;SDS011;8185;57.818;15.224;2023-02-03T02:22:58;1.47;;;1.37;;
16159;SDS011;8185;57.818;15.224;2023-02-03T02:25:47;3.60;;;1.73;;
16159;SDS011;8185;57.818;15.224;2023-02-03T02:28:30;1.70;;;1.33;;
16159;SDS011;8185;57.818;15.224;2023-02-03T02:34:28;3.80;;;1.87;;
16159;SDS011;8185;57.818;15.224;2023-02-03T02:37:06;2.67;;;1.60;;
16159;SDS011;8185;57.818;15.224;2023-02-03T02:39:42;2.20;;;1.70;;
16159;SDS011;8185;57.818;15.224;2023-02-03T02:42:17;2.20;;;1.80;;
16159;SDS011;8185;57.818;15.224;2023-02-03T02:44:52;1.50;;;1.40;;
16159;SDS011;8185;57.818;15.224;2023-02-03T02:47:26;2.00;;;1.80;;
16159;SDS011;8185;57.818;15.224;2023-02-03T02:49:53;3.40;;;1.73;;
16159;SDS011;8185;57.818;15.224;2023-02-03T02:52:24;2.50;;;1.70;;
16159;SDS011;8185;57.818;15.224;2023-02-03T02:54:55;2.87;;;1.50;;
16159;SDS011;8185;57.818;15.224;2023-02-03T02:57:27;3.03;;;1.80;;
16159;SDS011;8185;57.818;15.224;2023-02-03T02:59:56;2.23;;;1.80;;
16159;SDS011;8185;57.818;15.224;2023-02-03T03:02:31;1.93;;;1.40;;
16159;SDS011;8185;57.818;15.224;2023-02-03T03:04:59;5.30;;;1.80;;
16159;SDS011;8185;57.818;15.224;2023-02-03T03:07:29;3.43;;;1.40;;
16159;SDS011;8185;57.818;15.224;2023-02-03T03:10:02;4.47;;;1.63;;
16159;SDS011;8185;57.818;15.224;2023-02-03T03:12:36;2.50;;;1.20;;
16159;SDS011;8185;57.818;15.224;2023-02-03T03:15:07;2.40;;;1.60;;
16159;SDS011;8185;57.818;15.224;2023-02-03T03:17:39;4.27;;;1.70;;
16159;SDS011;8185;57.818;15.224;2023-02-03T03:20:10;1.97;;;1.40;;
16159;SDS011;8185;57.818;15.224;2023-02-03T03:22:43;2.43;;;1.10;;
16159;SDS011;8185;57.818;15.224;2023-02-03T03:25:14;2.10;;;1.23;;
16159;SDS011;8185;57.818;15.224;2023-02-03T03:27:45;2.03;;;1.40;;
16159;SDS011;8185;57.818;15.224;2023-02-03T03:30:16;1.30;;;1.20;;
16159;SDS011;8185;57.818;15.224;2023-02-03T03:32:49;2.67;;;1.30;;
16159;SDS011;8185;57.818;15.224;2023-02-03T03:35:17;2.20;;;1.20;;
16159;SDS011;8185;57.818;15.224;2023-02-03T03:37:45;1.40;;;1.30;;
16159;SDS011;8185;57.818;15.224;2023-02-03T03:40:19;3.10;;;1.37;;
16159;SDS011;8185;57.818;15.224;2023-02-03T03:42:50;1.90;;;1.50;;
16159;SDS011;8185;57.818;15.224;2023-02-03T03:45:21;1.20;;;1.00;;
16159;SDS011;8185;57.818;15.224;2023-02-03T03:47:55;2.47;;;1.40;;
16159;SDS011;8185;57.818;15.224;2023-02-03T03:50:27;1.40;;;1.20;;
16159;SDS011;8185;57.818;15.224;2023-02-03T03:52:58;1.87;;;0.87;;
16159;SDS011;8185;57.818;15.224;2023-02-03T03:55:27;2.67;;;1.20;;
16159;SDS011;8185;57.818;15.224;2023-02-03T03:57:57;2.17;;;1.37;;
16159;SDS011;8185;57.818;15.224;2023-02-03T04:00:28;1.70;;;1.07;;
16159;SDS011;8185;57.818;15.224;2023-02-03T04:03:00;1.97;;;1.23;;
16159;SDS011;8185;57.818;15.224;2023-02-03T04:05:31;2.93;;;1.10;;
16159;SDS011;8185;57.818;15.224;2023-02-03T04:07:59;1.33;;;1.23;;
16159;SDS011;8185;57.818;15.224;2023-02-03T04:10:30;0.73;;;0.73;;
16159;SDS011;8185;57.818;15.224;2023-02-03T04:12:59;1.57;;;1.03;;
16159;SDS011;8185;57.818;15.224;2023-02-03T04:15:27;1.10;;;1.00;;
16159;SDS011;8185;57.818;15.224;2023-02-03T04:17:55;2.27;;;0.90;;
16159;SDS011;8185;57.818;15.224;2023-02-03T04:20:24;1.33;;;1.00;;
16159;SDS011;8185;57.818;15.224;2023-02-03T04:22:51;1.07;;;0.90;;
16159;SDS011;8185;57.818;15.224;2023-02-03T04:25:19;1.60;;;0.77;;
16159;SDS011;8185;57.818;15.224;2023-02-03T04:27:46;1.17;;;0.97;;
16159;SDS011;8185;57.818;15.224;2023-02-03T04:30:13;0.83;;;0.70;;
16159;SDS011;8185;57.818;15.224;2023-02-03T04:32:42;2.37;;;1.00;;
16159;SDS011;8185;57.818;15.224;2023-02-03T04:35:09;2.33;;;0.97;;
16159;SDS011;8185;57.818;15.224;2023-02-03T04:37:38;1.53;;;0.80;;
16159;SDS011;8185;57.818;15.224;2023-02-03T04:40:06;1.50;;;1.00;;
16159;SDS011;8185;57.818;15.224;2023-02-03T04:42:35;2.77;;;0.70;;
16159;SDS011;8185;57.818;15.224;2023-02-03T04:45:03;3.07;;;1.20;;
16159;SDS011;8185;57.818;15.224;2023-02-03T04:47:31;1.30;;;1.00;;
16159;SDS011;8185;57.818;15.224;2023-02-03T04:49:58;1.17;;;0.80;;
16159;SDS011;8185;57.818;15.224;2023-02-03T04:52:25;2.17;;;1.30;;
16159;SDS011;8185;57.818;15.224;2023-02-03T04:54:54;1.20;;;1.10;;
16159;SDS011;8185;57.818;15.224;2023-02-03T04:57:21;2.20;;;1.00;;
16159;SDS011;8185;57.818;15.224;2023-02-03T04:59:48;1.90;;;1.20;;
16159;SDS011;8185;57.818;15.224;2023-02-03T05:02:15;1.17;;;0.90;;
16159;SDS011;8185;57.818;15.224;2023-02-03T05:04:42;1.03;;;0.90;;
16159;SDS011;8185;57.818;15.224;2023-02-03T05:07:09;1.20;;;1.00;;
16159;SDS011;8185;57.818;15.224;2023-02-03T05:09:36;3.93;;;1.50;;
16159;SDS011;8185;57.818;15.224;2023-02-03T05:12:05;1.57;;;1.20;;
16159;SDS011;8185;57.818;15.224;2023-02-03T05:14:33;1.93;;;0.97;;
16159;SDS011;8185;57.818;15.224;2023-02-03T05:17:00;1.40;;;1.27;;
16159;SDS011;8185;57.818;15.224;2023-02-03T05:19:27;1.77;;;1.10;;
16159;SDS011;8185;57.818;15.224;2023-02-03T05:21:54;1.43;;;1.10;;
16159;SDS011;8185;57.818;15.224;2023-02-03T05:24:22;1.70;;;1.13;;
16159;SDS011;8185;57.818;15.224;2023-02-03T05:26:49;1.10;;;0.90;;
16159;SDS011;8185;57.818;15.224;2023-02-03T05:29:18;1.27;;;1.00;;
16159;SDS011;8185;57.818;15.224;2023-02-03T05:31:45;1.77;;;1.20;;
16159;SDS011;8185;57.818;15.224;2023-02-03T05:34:12;2.07;;;1.30;;
16159;SDS011;8185;57.818;15.224;2023-02-03T05:36:39;1.77;;;1.23;;
16159;SDS011;8185;57.818;15.224;2023-02-03T05:39:06;1.27;;;1.10;;
16159;SDS011;8185;57.818;15.224;2023-02-03T05:41:34;1.50;;;1.40;;
16159;SDS011;8185;57.818;15.224;2023-02-03T05:44:19;1.83;;;1.27;;
16159;SDS011;8185;57.818;15.224;2023-02-03T05:46:48;1.47;;;1.10;;
16159;SDS011;8185;57.818;15.224;2023-02-03T05:49:16;1.33;;;1.07;;
16159;SDS011;8185;57.818;15.224;2023-02-03T05:51:43;1.63;;;1.30;;
16159;SDS011;8185;57.818;15.224;2023-02-03T05:54:11;2.50;;;1.07;;
16159;SDS011;8185;57.818;15.224;2023-02-03T05:56:38;1.80;;;1.40;;
16159;SDS011;8185;57.818;15.224;2023-02-03T05:59:06;1.97;;;1.20;;
16159;SDS011;8185;57.818;15.224;2023-02-03T06:01:35;1.83;;;1.20;;
16159;SDS011;8185;57.818;15.224;2023-02-03T06:04:03;1.97;;;1.13;;
16159;SDS011;8185;57.818;15.224;2023-02-03T06:06:30;3.30;;;1.50;;
16159;SDS011;8185;57.818;15.224;2023-02-03T06:08:58;1.87;;;1.50;;
16159;SDS011;8185;57.818;15.224;2023-02-03T06:11:26;1.10;;;1.00;;
16159;SDS011;8185;57.818;15.224;2023-02-03T06:13:53;2.73;;;1.50;;
16159;SDS011;8185;57.818;15.224;2023-02-03T06:16:22;1.33;;;1.10;;
16159;SDS011;8185;57.818;15.224;2023-02-03T06:18:53;1.90;;;1.50;;
16159;SDS011;8185;57.818;15.224;2023-02-03T06:21:22;1.70;;;1.10;;
16159;SDS011;8185;57.818;15.224;2023-02-03T06:23:49;1.40;;;1.30;;
16159;SDS011;8185;57.818;15.224;2023-02-03T06:26:16;1.53;;;1.27;;
16159;SDS011;8185;57.818;15.224;2023-02-03T06:28:44;1.70;;;1.10;;
16159;SDS011;8185;57.818;15.224;2023-02-03T06:31:11;3.17;;;1.27;;
16159;SDS011;8185;57.818;15.224;2023-02-03T06:33:38;1.40;;;1.30;;
16159;SDS011;8185;57.818;15.224;2023-02-03T06:36:07;1.73;;;1.10;;
16159;SDS011;8185;57.818;15.224;2023-02-03T06:38:34;1.57;;;1.07;;
16159;SDS011;8185;57.818;15.224;2023-02-03T06:41:02;1.30;;;1.20;;
16159;SDS011;8185;57.818;15.224;2023-02-03T06:43:29;1.30;;;1.10;;
16159;SDS011;8185;57.818;15.224;2023-02-03T06:45:56;1.97;;;1.27;;
16159;SDS011;8185;57.818;15.224;2023-02-03T06:48:23;1.70;;;1.10;;
16159;SDS011;8185;57.818;15.224;2023-02-03T06:50:50;2.37;;;1.10;;
16159;SDS011;8185;57.818;15.224;2023-02-03T06:53:19;1.40;;;1.30;;
16159;SDS011;8185;57.818;15.224;2023-02-03T06:55:46;2.03;;;1.30;;
16159;SDS011;8185;57.818;15.224;2023-02-03T06:58:14;2.23;;;1.27;;
16159;SDS011;8185;57.818;15.224;2023-02-03T07:00:41;2.03;;;1.23;;
16159;SDS011;8185;57.818;15.224;2023-02-03T07:03:08;2.20;;;1.20;;
16159;SDS011;8185;57.818;15.224;2023-02-03T07:05:36;1.63;;;1.30;;
16159;SDS011;8185;57.818;15.224;2023-02-03T07:08:04;2.27;;;1.40;;
16159;SDS011;8185;57.818;15.224;2023-02-03T07:10:33;2.73;;;1.50;;
16159;SDS011;8185;57.818;15.224;2023-02-03T07:13:01;1.67;;;1.53;;
16159;SDS011;8185;57.818;15.224;2023-02-03T07:15:29;2.47;;;1.50;;
16159;SDS011;8185;57.818;15.224;2023-02-03T07:17:56;1.93;;;1.60;;
16159;SDS011;8185;57.818;15.224;2023-02-03T07:20:23;2.23;;;1.20;;
16159;SDS011;8185;57.818;15.224;2023-02-03T07:22:53;1.50;;;1.30;;
16159;SDS011;8185;57.818;15.224;2023-02-03T07:25:21;1.90;;;1.50;;
16159;SDS011;8185;57.818;15.224;2023-02-03T07:27:50;1.57;;;1.30;;
16159;SDS011;8185;57.818;15.224;2023-02-03T07:30:18;1.87;;;1.50;;
16159;SDS011;8185;57.818;15.224;2023-02-03T07:32:46;1.83;;;1.50;;
16159;SDS011;8185;57.818;15.224;2023-02-03T07:35:13;2.10;;;1.90;;
16159;SDS011;8185;57.818;15.224;2023-02-03T07:37:41;1.80;;;1.30;;
16159;SDS011;8185;57.818;15.224;2023-02-03T07:40:09;1.93;;;1.70;;
16159;SDS011;8185;57.818;15.224;2023-02-03T07:42:39;1.97;;;1.87;;
16159;SDS011;8185;57.818;15.224;2023-02-03T07:45:09;2.30;;;1.53;;
16159;SDS011;8185;57.818;15.224;2023-02-03T07:47:37;1.80;;;1.70;;
16159;SDS011;8185;57.818;15.224;2023-02-03T07:50:04;2.00;;;1.90;;
16159;SDS011;8185;57.818;15.224;2023-02-03T07:52:32;2.53;;;1.83;;
16159;SDS011;8185;57.818;15.224;2023-02-03T07:55:00;1.87;;;1.70;;
16159;SDS011;8185;57.818;15.224;2023-02-03T07:57:27;2.30;;;1.60;;
16159;SDS011;8185;57.818;15.224;2023-02-03T07:59:54;1.90;;;1.70;;
16159;SDS011;8185;57.818;15.224;2023-02-03T08:02:23;2.20;;;2.00;;
16159;SDS011;8185;57.818;15.224;2023-02-03T08:04:50;3.10;;;2.00;;
16159;SDS011;8185;57.818;15.224;2023-02-03T08:07:17;2.30;;;2.10;;
16159;SDS011;8185;57.818;15.224;2023-02-03T08:09:44;2.20;;;1.70;;
16159;SDS011;8185;57.818;15.224;2023-02-03T08:12:12;2.70;;;1.57;;
16159;SDS011;8185;57.818;15.224;2023-02-03T08:14:39;2.03;;;1.60;;
16159;SDS011;8185;57.818;15.224;2023-02-03T08:17:09;2.10;;;1.80;;
16159;SDS011;8185;57.818;15.224;2023-02-03T08:19:37;3.10;;;1.80;;
16159;SDS011;8185;57.818;15.224;2023-02-03T08:22:04;2.77;;;1.90;;
16159;SDS011;8185;57.818;15.224;2023-02-03T08:24:32;1.97;;;1.80;;
16159;SDS011;8185;57.818;15.224;2023-02-03T08:26:59;3.40;;;1.73;;
16159;SDS011;8185;57.818;15.224;2023-02-03T08:29:28;2.30;;;1.77;;
16159;SDS011;8185;57.818;15.224;2023-02-03T08:31:56;2.63;;;2.10;;
16159;SDS011;8185;57.818;15.224;2023-02-03T08:34:25;2.23;;;1.70;;
16159;SDS011;8185;57.818;15.224;2023-02-03T08:36:54;2.47;;;1.73;;
16159;SDS011;8185;57.818;15.224;2023-02-03T08:39:21;3.33;;;2.23;;
16159;SDS011;8185;57.818;15.224;2023-02-03T08:41:49;3.30;;;3.00;;
16159;SDS011;8185;57.818;15.224;2023-02-03T08:44:16;2.67;;;2.47;;
16159;SDS011;8185;57.818;15.224;2023-02-03T08:46:44;3.30;;;2.40;;
16159;SDS011;8185;57.818;15.224;2023-02-03T08:49:11;3.77;;;1.90;;
16159;SDS011;8185;57.818;15.224;2023-02-03T08:51:38;2.60;;;2.00;;
16159;SDS011;8185;57.818;15.224;2023-02-03T08:54:07;4.77;;;2.03;;
16159;SDS011;8185;57.818;15.224;2023-02-03T08:56:34;4.03;;;2.23;;
16159;SDS011;8185;57.818;15.224;2023-02-03T08:59:01;3.40;;;1.83;;
16159;SDS011;8185;57.818;15.224;2023-02-03T09:01:28;2.10;;;1.90;;
16159;SDS011;8185;57.818;15.224;2023-02-03T09:03:55;3.20;;;1.70;;
16159;SDS011;8185;57.818;15.224;2023-02-03T09:06:22;2.53;;;1.60;;
16159;SDS011;8185;57.818;15.224;2023-02-03T09:08:50;2.10;;;1.90;;
16159;SDS011;8185;57.818;15.224;2023-02-03T09:11:18;2.83;;;1.90;;
16159;SDS011;8185;57.818;15.224;2023-02-03T09:13:45;3.07;;;2.10;;
16159;SDS011;8185;57.818;15.224;2023-02-03T09:16:14;1.93;;;1.50;;
16159;SDS011;8185;57.818;15.224;2023-02-03T09:18:43;1.83;;;1.50;;
16159;SDS011;8185;57.818;15.224;2023-02-03T09:21:11;2.17;;;1.60;;
16159;SDS011;8185;57.818;15.224;2023-02-03T09:23:40;1.47;;;1.20;;
16159;SDS011;8185;57.818;15.224;2023-02-03T09:26:08;2.37;;;1.50;;
16159;SDS011;8185;57.818;15.224;2023-02-03T09:28:39;5.90;;;1.50;;
16159;SDS011;8185;57.818;15.224;2023-02-03T09:31:07;4.10;;;1.70;;
16159;SDS011;8185;57.818;15.224;2023-02-03T09:33:37;1.37;;;1.27;;
16159;SDS011;8185;57.818;15.224;2023-02-03T09:36:05;2.30;;;1.43;;
16159;SDS011;8185;57.818;15.224;2023-02-03T09:38:33;3.73;;;1.50;;
16159;SDS011;8185;57.818;15.224;2023-02-03T09:41:02;1.70;;;1.60;;
16159;SDS011;8185;57.818;15.224;2023-02-03T09:43:45;1.73;;;1.50;;
16159;SDS011;8185;57.818;15.224;2023-02-03T09:46:17;1.60;;;1.50;;
16159;SDS011;8185;57.818;15.224;2023-02-03T09:48:49;2.27;;;1.50;;
16159;SDS011;8185;57.818;15.224;2023-02-03T09:51:19;2.63;;;1.27;;
16159;SDS011;8185;57.818;15.224;2023-02-03T09:53:51;1.57;;;1.47;;
16159;SDS011;8185;57.818;15.224;2023-02-03T09:56:25;2.00;;;1.50;;
16159;SDS011;8185;57.818;15.224;2023-02-03T09:58:56;2.13;;;1.20;;
16159;SDS011;8185;57.818;15.224;2023-02-03T10:01:24;2.10;;;1.50;;
16159;SDS011;8185;57.818;15.224;2023-02-03T10:03:57;1.23;;;1.13;;
16159;SDS011;8185;57.818;15.224;2023-02-03T10:06:32;1.53;;;1.23;;
16159;SDS011;8185;57.818;15.224;2023-02-03T10:09:15;3.07;;;1.40;;
16159;SDS011;8185;57.818;15.224;2023-02-03T10:11:57;1.77;;;1.07;;
16159;SDS011;8185;57.818;15.224;2023-02-03T10:14:47;1.57;;;1.00;;
16159;SDS011;8185;57.818;15.224;2023-02-03T10:17:24;1.33;;;0.90;;
16159;SDS011;8185;57.818;15.224;2023-02-03T10:19:57;1.90;;;1.27;;
16159;SDS011;8185;57.818;15.224;2023-02-03T10:22:30;2.17;;;1.17;;
16159;SDS011;8185;57.818;15.224;2023-02-03T10:25:02;1.43;;;1.00;;
16159;SDS011;8185;57.818;15.224;2023-02-03T10:27:37;1.37;;;1.27;;
16159;SDS011;8185;57.818;15.224;2023-02-03T10:30:10;1.43;;;0.87;;
16159;SDS011;8185;57.818;15.224;2023-02-03T10:32:45;1.00;;;0.90;;
16159;SDS011;8185;57.818;15.224;2023-02-03T10:35:17;1.40;;;1.00;;
16159;SDS011;8185;57.818;15.224;2023-02-03T10:37:46;1.40;;;0.90;;
16159;SDS011;8185;57.818;15.224;2023-02-03T10:40:24;1.30;;;0.80;;
16159;SDS011;8185;57.818;15.224;2023-02-03T10:42:53;1.07;;;0.80;;
16159;SDS011;8185;57.818;15.224;2023-02-03T10:45:39;0.77;;;0.77;;
16159;SDS011;8185;57.818;15.224;2023-02-03T10:48:10;1.37;;;0.70;;
16159;SDS011;8185;57.818;15.224;2023-02-03T10:50:43;0.93;;;0.83;;
16159;SDS011;8185;57.818;15.224;2023-02-03T10:53:21;1.60;;;0.67;;
16159;SDS011;8185;57.818;15.224;2023-02-03T10:55:51;2.57;;;0.50;;
16159;SDS011;8185;57.818;15.224;2023-02-03T10:58:27;1.30;;;0.60;;
16159;SDS011;8185;57.818;15.224;2023-02-03T11:00:57;1.80;;;0.60;;
16159;SDS011;8185;57.818;15.224;2023-02-03T11:03:31;0.63;;;0.50;;
16159;SDS011;8185;57.818;15.224;2023-02-03T11:06:02;0.67;;;0.50;;
16159;SDS011;8185;57.818;15.224;2023-02-03T11:08:32;1.00;;;0.50;;
16159;SDS011;8185;57.818;15.224;2023-02-03T11:11:03;0.90;;;0.70;;
16159;SDS011;8185;57.818;15.224;2023-02-03T11:13:32;2.10;;;0.67;;
16159;SDS011;8185;57.818;15.224;2023-02-03T11:16:02;0.90;;;0.80;;
16159;SDS011;8185;57.818;15.224;2023-02-03T11:18:34;1.50;;;0.70;;
16159;SDS011;8185;57.818;15.224;2023-02-03T11:21:11;1.57;;;0.90;;
16159;SDS011;8185;57.818;15.224;2023-02-03T11:23:43;0.73;;;0.60;;
16159;SDS011;8185;57.818;15.224;2023-02-03T11:26:16;0.83;;;0.60;;
16159;SDS011;8185;57.818;15.224;2023-02-03T11:28:47;0.90;;;0.60;;
16159;SDS011;8185;57.818;15.224;2023-02-03T11:31:19;1.70;;;0.60;;
16159;SDS011;8185;57.818;15.224;2023-02-03T11:33:50;4.33;;;0.70;;
16159;SDS011;8185;57.818;15.224;2023-02-03T11:36:24;1.07;;;0.57;;
16159;SDS011;8185;57.818;15.224;2023-02-03T11:39:00;2.00;;;0.60;;
16159;SDS011;8185;57.818;15.224;2023-02-03T11:41:44;0.63;;;0.50;;
16159;SDS011;8185;57.818;15.224;2023-02-03T11:44:15;0.93;;;0.50;;
16159;SDS011;8185;57.818;15.224;2023-02-03T11:46:46;1.40;;;0.50;;
16159;SDS011;8185;57.818;15.224;2023-02-03T11:49:22;2.63;;;1.07;;
16159;SDS011;8185;57.818;15.224;2023-02-03T11:52:12;0.50;;;0.50;;
16159;SDS011;8185;57.818;15.224;2023-02-03T11:55:11;3.80;;;0.57;;
16159;SDS011;8185;57.818;15.224;2023-02-03T11:57:53;0.80;;;0.37;;
16159;SDS011;8185;57.818;15.224;2023-02-03T12:00:33;1.90;;;0.93;;
16159;SDS011;8185;57.818;15.224;2023-02-03T12:03:28;3.73;;;0.60;;
16159;SDS011;8185;57.818;15.224;2023-02-03T12:06:27;3.90;;;0.50;;
16159;SDS011;8185;57.818;15.224;2023-02-03T12:09:11;0.50;;;0.50;;
16159;SDS011;8185;57.818;15.224;2023-02-03T12:11:54;0.70;;;0.50;;
16159;SDS011;8185;57.818;15.224;2023-02-03T12:14:39;2.43;;;0.90;;
16159;SDS011;8185;57.818;15.224;2023-02-03T12:23:09;4.70;;;0.60;;
16159;SDS011;8185;57.818;15.224;2023-02-03T12:25:53;2.07;;;0.43;;
16159;SDS011;8185;57.818;15.224;2023-02-03T12:31:24;1.27;;;0.40;;
16159;SDS011;8185;57.818;15.224;2023-02-03T12:34:01;0.47;;;0.40;;
16159;SDS011;8185;57.818;15.224;2023-02-03T12:36:39;0.87;;;0.50;;
16159;SDS011;8185;57.818;15.224;2023-02-03T12:39:12;1.90;;;0.40;;
16159;SDS011;8185;57.818;15.224;2023-02-03T12:41:46;2.67;;;0.70;;
16159;SDS011;8185;57.818;15.224;2023-02-03T12:44:20;2.03;;;0.67;;
16159;SDS011;8185;57.818;15.224;2023-02-03T12:46:54;2.80;;;0.60;;
16159;SDS011;8185;57.818;15.224;2023-02-03T12:49:30;2.30;;;0.70;;
16159;SDS011;8185;57.818;15.224;2023-02-03T12:52:09;1.07;;;0.60;;
16159;SDS011;8185;57.818;15.224;2023-02-03T12:54:44;1.33;;;0.60;;
16159;SDS011;8185;57.818;15.224;2023-02-03T12:57:18;0.90;;;0.40;;
16159;SDS011;8185;57.818;15.224;2023-02-03T12:59:55;4.27;;;1.33;;
16159;SDS011;8185;57.818;15.224;2023-02-03T13:02:52;2.30;;;0.67;;
16159;SDS011;8185;57.818;15.224;2023-02-03T13:05:29;0.50;;;0.40;;
16159;SDS011;8185;57.818;15.224;2023-02-03T13:08:08;2.20;;;1.03;;
16159;SDS011;8185;57.818;15.224;2023-02-03T13:10:44;2.43;;;0.60;;
16159;SDS011;8185;57.818;15.224;2023-02-03T13:13:15;1.20;;;1.10;;
16159;SDS011;8185;57.818;15.224;2023-02-03T13:15:51;0.87;;;0.60;;
16159;SDS011;8185;57.818;15.224;2023-02-03T13:18:22;0.93;;;0.50;;
16159;SDS011;8185;57.818;15.224;2023-02-03T13:20:53;1.17;;;0.50;;
16159;SDS011;8185;57.818;15.224;2023-02-03T13:23:22;1.00;;;0.50;;
16159;SDS011;8185;57.818;15.224;2023-02-03T13:25:59;2.57;;;0.53;;
16159;SDS011;8185;57.818;15.224;2023-02-03T13:29:04;0.60;;;0.47;;
16159;SDS011;8185;57.818;15.224;2023-02-03T13:31:42;1.00;;;0.70;;
16159;SDS011;8185;57.818;15.224;2023-02-03T13:34:19;0.67;;;0.60;;
16159;SDS011;8185;57.818;15.224;2023-02-03T13:37:09;1.10;;;0.60;;
16159;SDS011;8185;57.818;15.224;2023-02-03T13:40:01;0.83;;;0.60;;
16159;SDS011;8185;57.818;15.224;2023-02-03T13:42:38;1.20;;;0.67;;
16159;SDS011;8185;57.818;15.224;2023-02-03T13:45:11;1.63;;;0.70;;
16159;SDS011;8185;57.818;15.224;2023-02-03T13:47:46;1.83;;;0.80;;
16159;SDS011;8185;57.818;15.224;2023-02-03T13:50:17;0.60;;;0.53;;
16159;SDS011;8185;57.818;15.224;2023-02-03T13:52:52;2.00;;;0.80;;
16159;SDS011;8185;57.818;15.224;2023-02-03T13:55:32;1.43;;;0.70;;
16159;SDS011;8185;57.818;15.224;2023-02-03T13:58:02;2.23;;;0.70;;
16159;SDS011;8185;57.818;15.224;2023-02-03T14:03:45;0.80;;;0.67;;
16159;SDS011;8185;57.818;15.224;2023-02-03T14:09:38;2.87;;;0.60;;
16159;SDS011;8185;57.818;15.224;2023-02-03T14:15:02;0.87;;;0.47;;
16159;SDS011;8185;57.818;15.224;2023-02-03T14:17:54;1.17;;;0.70;;
16159;SDS011;8185;57.818;15.224;2023-02-03T14:23:47;1.47;;;0.60;;
16159;SDS011;8185;57.818;15.224;2023-02-03T14:26:22;1.20;;;0.70;;
16159;SDS011;8185;57.818;15.224;2023-02-03T14:28:56;0.87;;;0.70;;
16159;SDS011;8185;57.818;15.224;2023-02-03T14:31:24;1.00;;;0.60;;
16159;SDS011;8185;57.818;15.224;2023-02-03T14:36:40;2.07;;;0.60;;
16159;SDS011;8185;57.818;15.224;2023-02-03T14:45:26;1.57;;;0.70;;
16159;SDS011;8185;57.818;15.224;2023-02-03T14:48:06;0.80;;;0.57;;
16159;SDS011;8185;57.818;15.224;2023-02-03T14:50:48;3.03;;;0.77;;
16159;SDS011;8185;57.818;15.224;2023-02-03T14:53:28;2.10;;;0.83;;
16159;SDS011;8185;57.818;15.224;2023-02-03T14:56:10;0.57;;;0.40;;
16159;SDS011;8185;57.818;15.224;2023-02-03T14:58:46;2.40;;;0.50;;
16159;SDS011;8185;57.818;15.224;2023-02-03T15:01:24;0.60;;;0.50;;
16159;SDS011;8185;57.818;15.224;2023-02-03T15:04:21;2.33;;;0.70;;
16159;SDS011;8185;57.818;15.224;2023-02-03T15:06:50;1.33;;;0.80;;
16159;SDS011;8185;57.818;15.224;2023-02-03T15:09:23;0.90;;;0.90;;
16159;SDS011;8185;57.818;15.224;2023-02-03T15:11:55;0.97;;;0.60;;
16159;SDS011;8185;57.818;15.224;2023-02-03T15:14:23;0.70;;;0.70;;
16159;SDS011;8185;57.818;15.224;2023-02-03T15:16:56;1.77;;;0.70;;
16159;SDS011;8185;57.818;15.224;2023-02-03T15:19:26;1.33;;;0.60;;
16159;SDS011;8185;57.818;15.224;2023-02-03T15:21:55;0.77;;;0.50;;
16159;SDS011;8185;57.818;15.224;2023-02-03T15:24:22;3.63;;;0.70;;
16159;SDS011;8185;57.818;15.224;2023-02-03T15:26:50;1.23;;;0.50;;
16159;SDS011;8185;57.818;15.224;2023-02-03T15:29:25;0.87;;;0.60;;
16159;SDS011;8185;57.818;15.224;2023-02-03T15:31:58;0.87;;;0.50;;
16159;SDS011;8185;57.818;15.224;2023-02-03T15:34:35;0.83;;;0.50;;
16159;SDS011;8185;57.818;15.224;2023-02-03T15:37:07;0.60;;;0.40;;
16159;SDS011;8185;57.818;15.224;2023-02-03T15:39:42;1.23;;;0.60;;
16159;SDS011;8185;57.818;15.224;2023-02-03T15:42:16;1.10;;;0.60;;
16159;SDS011;8185;57.818;15.224;2023-02-03T15:44:49;1.20;;;0.73;;
16159;SDS011;8185;57.818;15.224;2023-02-03T15:47:23;0.50;;;0.47;;
16159;SDS011;8185;57.818;15.224;2023-02-03T15:49:58;2.30;;;0.60;;